sensor_id;sensor_type;location;lat;lon;timestamp;temperature;humidity
10678;DHT22;5387;48.722;9.110;2023-07-13T00:02:07;18.60;99.90
10678;DHT22;5387;48.722;9.110;2023-07-13T00:04:36;18.60;99.90
10678;DHT22;5387;48.722;9.110;2023-07-13T00:07:03;18.60;99.90
10678;DHT22;5387;48.722;9.110;2023-07-13T00:09:30;18.50;99.90
10678;DHT22;5387;48.722;9.110;2023-07-13T00:11:57;18.40;99.90
10678;DHT22;5387;48.722;9.110;2023-07-13T00:14:25;18.40;99.90
10678;DHT22;5387;48.722;9.110;2023-07-13T00:16:53;18.30;99.90
10678;DHT22;5387;48.722;9.110;2023-07-13T00:19:20;18.30;99.90
10678;DHT22;5387;48.722;9.110;2023-07-13T00:21:48;18.30;99.90
10678;DHT22;5387;48.722;9.110;2023-07-13T00:24:17;18.20;99.90
10678;DHT22;5387;48.722;9.110;2023-07-13T00:26:49;18.20;99.90
10678;DHT22;5387;48.722;9.110;2023-07-13T00:29:15;18.00;99.90
10678;DHT22;5387;48.722;9.110;2023-07-13T00:31:42;18.10;99.90
10678;DHT22;5387;48.722;9.110;2023-07-13T00:34:10;18.00;99.90
10678;DHT22;5387;48.722;9.110;2023-07-13T00:36:37;18.00;99.90
10678;DHT22;5387;48.722;9.110;2023-07-13T00:39:05;18.00;99.90
10678;DHT22;5387;48.722;9.110;2023-07-13T00:41:32;17.90;99.90
10678;DHT22;5387;48.722;9.110;2023-07-13T00:43:59;17.90;99.90
10678;DHT22;5387;48.722;9.110;2023-07-13T00:46:28;17.80;99.90
10678;DHT22;5387;48.722;9.110;2023-07-13T00:48:57;17.80;99.90
10678;DHT22;5387;48.722;9.110;2023-07-13T00:51:30;17.90;99.90
10678;DHT22;5387;48.722;9.110;2023-07-13T00:54:00;17.80;99.90
10678;DHT22;5387;48.722;9.110;2023-07-13T00:56:29;17.80;99.90
10678;DHT22;5387;48.722;9.110;2023-07-13T00:58:57;17.70;99.90
10678;DHT22;5387;48.722;9.110;2023-07-13T01:01:25;17.80;99.90
10678;DHT22;5387;48.722;9.110;2023-07-13T01:03:52;17.90;99.90
10678;DHT22;5387;48.722;9.110;2023-07-13T01:06:19;17.80;99.90
10678;DHT22;5387;48.722;9.110;2023-07-13T01:08:46;17.80;99.90
10678;DHT22;5387;48.722;9.110;2023-07-13T01:11:18;17.90;99.90
10678;DHT22;5387;48.722;9.110;2023-07-13T01:13:47;17.90;99.90
10678;DHT22;5387;48.722;9.110;2023-07-13T01:16:23;17.80;99.90
10678;DHT22;5387;48.722;9.110;2023-07-13T01:18:50;17.80;99.90
10678;DHT22;5387;48.722;9.110;2023-07-13T01:21:18;17.80;99.90
10678;DHT22;5387;48.722;9.110;2023-07-13T01:23:45;17.80;99.90
10678;DHT22;5387;48.722;9.110;2023-07-13T01:26:12;17.70;99.90
10678;DHT22;5387;48.722;9.110;2023-07-13T01:28:39;17.60;99.90
10678;DHT22;5387;48.722;9.110;2023-07-13T01:31:06;17.50;99.90
10678;DHT22;5387;48.722;9.110;2023-07-13T01:33:34;17.50;99.90
10678;DHT22;5387;48.722;9.110;2023-07-13T01:36:01;17.40;99.90
10678;DHT22;5387;48.722;9.110;2023-07-13T01:38:29;17.40;99.90
10678;DHT22;5387;48.722;9.110;2023-07-13T01:40:56;17.30;99.90
10678;DHT22;5387;48.722;9.110;2023-07-13T01:43:22;17.20;99.90
10678;DHT22;5387;48.722;9.110;2023-07-13T01:45:49;17.20;99.90
10678;DHT22;5387;48.722;9.110;2023-07-13T01:48:16;17.20;99.90
10678;DHT22;5387;48.722;9.110;2023-07-13T01:50:43;17.20;99.90
10678;DHT22;5387;48.722;9.110;2023-07-13T01:53:10;17.00;99.90
10678;DHT22;5387;48.722;9.110;2023-07-13T01:55:38;17.00;99.90
10678;DHT22;5387;48.722;9.110;2023-07-13T01:58:05;17.00;99.90
10678;DHT22;5387;48.722;9.110;2023-07-13T02:00:32;16.90;99.90
10678;DHT22;5387;48.722;9.110;2023-07-13T02:02:59;16.90;99.90
10678;DHT22;5387;48.722;9.110;2023-07-13T02:05:26;16.80;99.90
10678;DHT22;5387;48.722;9.110;2023-07-13T02:07:53;16.70;99.90
10678;DHT22;5387;48.722;9.110;2023-07-13T02:10:20;16.70;99.90
10678;DHT22;5387;48.722;9.110;2023-07-13T02:12:48;16.70;99.90
10678;DHT22;5387;48.722;9.110;2023-07-13T02:15:16;16.60;99.90
10678;DHT22;5387;48.722;9.110;2023-07-13T02:17:43;16.70;99.90
10678;DHT22;5387;48.722;9.110;2023-07-13T02:20:10;16.70;99.90
10678;DHT22;5387;48.722;9.110;2023-07-13T02:22:37;16.70;99.90
10678;DHT22;5387;48.722;9.110;2023-07-13T02:25:04;16.60;99.90
10678;DHT22;5387;48.722;9.110;2023-07-13T02:27:31;16.50;99.90
10678;DHT22;5387;48.722;9.110;2023-07-13T02:29:59;16.30;99.90
10678;DHT22;5387;48.722;9.110;2023-07-13T02:32:26;16.20;99.90
10678;DHT22;5387;48.722;9.110;2023-07-13T02:34:53;16.10;99.90
10678;DHT22;5387;48.722;9.110;2023-07-13T02:37:20;16.00;99.90
10678;DHT22;5387;48.722;9.110;2023-07-13T02:39:46;16.00;99.90
10678;DHT22;5387;48.722;9.110;2023-07-13T02:42:14;15.90;99.90
10678;DHT22;5387;48.722;9.110;2023-07-13T02:44:40;15.90;99.90
10678;DHT22;5387;48.722;9.110;2023-07-13T02:47:09;16.00;99.90
10678;DHT22;5387;48.722;9.110;2023-07-13T02:49:35;15.60;99.90
10678;DHT22;5387;48.722;9.110;2023-07-13T02:52:04;15.80;99.90
10678;DHT22;5387;48.722;9.110;2023-07-13T02:54:31;15.70;99.90
10678;DHT22;5387;48.722;9.110;2023-07-13T02:56:57;15.70;99.90
10678;DHT22;5387;48.722;9.110;2023-07-13T02:59:24;15.70;99.90
10678;DHT22;5387;48.722;9.110;2023-07-13T03:01:51;15.80;99.90
10678;DHT22;5387;48.722;9.110;2023-07-13T03:04:19;15.80;99.90
10678;DHT22;5387;48.722;9.110;2023-07-13T03:06:46;16.10;99.90
10678;DHT22;5387;48.722;9.110;2023-07-13T03:09:13;16.00;99.90
10678;DHT22;5387;48.722;9.110;2023-07-13T03:11:40;16.00;99.90
10678;DHT22;5387;48.722;9.110;2023-07-13T03:14:08;16.20;99.90
10678;DHT22;5387;48.722;9.110;2023-07-13T03:16:34;16.20;99.90
10678;DHT22;5387;48.722;9.110;2023-07-13T03:19:01;16.20;99.90
10678;DHT22;5387;48.722;9.110;2023-07-13T03:21:30;16.30;99.90
10678;DHT22;5387;48.722;9.110;2023-07-13T03:23:56;16.50;99.90
10678;DHT22;5387;48.722;9.110;2023-07-13T03:26:23;16.60;99.90
10678;DHT22;5387;48.722;9.110;2023-07-13T03:28:50;16.70;99.90
10678;DHT22;5387;48.722;9.110;2023-07-13T03:31:19;16.80;99.90
10678;DHT22;5387;48.722;9.110;2023-07-13T03:33:46;16.90;99.90
10678;DHT22;5387;48.722;9.110;2023-07-13T03:36:15;16.90;99.90
10678;DHT22;5387;48.722;9.110;2023-07-13T03:38:46;17.00;99.90
10678;DHT22;5387;48.722;9.110;2023-07-13T03:41:14;17.20;99.90
10678;DHT22;5387;48.722;9.110;2023-07-13T03:43:41;17.10;99.90
10678;DHT22;5387;48.722;9.110;2023-07-13T03:46:08;17.10;99.90
10678;DHT22;5387;48.722;9.110;2023-07-13T03:48:34;17.10;99.90
10678;DHT22;5387;48.722;9.110;2023-07-13T03:51:01;17.10;99.90
10678;DHT22;5387;48.722;9.110;2023-07-13T03:53:28;17.10;99.90
10678;DHT22;5387;48.722;9.110;2023-07-13T03:55:56;17.10;99.90
10678;DHT22;5387;48.722;9.110;2023-07-13T03:58:25;17.10;99.90
10678;DHT22;5387;48.722;9.110;2023-07-13T04:00:53;17.10;99.90
10678;DHT22;5387;48.722;9.110;2023-07-13T04:03:19;17.10;99.90
10678;DHT22;5387;48.722;9.110;2023-07-13T04:05:46;17.10;99.90
10678;DHT22;5387;48.722;9.110;2023-07-13T04:08:13;17.00;99.90
10678;DHT22;5387;48.722;9.110;2023-07-13T04:10:40;17.10;99.90
10678;DHT22;5387;48.722;9.110;2023-07-13T04:13:08;17.00;99.90
10678;DHT22;5387;48.722;9.110;2023-07-13T04:15:35;17.10;99.90
10678;DHT22;5387;48.722;9.110;2023-07-13T04:18:02;17.30;99.90
10678;DHT22;5387;48.722;9.110;2023-07-13T04:20:29;17.20;99.90
10678;DHT22;5387;48.722;9.110;2023-07-13T04:22:56;17.10;99.90
10678;DHT22;5387;48.722;9.110;2023-07-13T04:25:24;17.20;99.90
10678;DHT22;5387;48.722;9.110;2023-07-13T04:27:50;17.20;99.90
10678;DHT22;5387;48.722;9.110;2023-07-13T04:30:20;17.20;99.90
10678;DHT22;5387;48.722;9.110;2023-07-13T04:32:46;17.20;99.90
10678;DHT22;5387;48.722;9.110;2023-07-13T04:35:14;17.20;99.90
10678;DHT22;5387;48.722;9.110;2023-07-13T04:37:41;17.20;99.90
10678;DHT22;5387;48.722;9.110;2023-07-13T04:40:08;17.20;99.90
10678;DHT22;5387;48.722;9.110;2023-07-13T04:42:37;17.20;99.90
10678;DHT22;5387;48.722;9.110;2023-07-13T04:45:05;17.10;99.90
10678;DHT22;5387;48.722;9.110;2023-07-13T04:47:33;17.10;99.90
10678;DHT22;5387;48.722;9.110;2023-07-13T04:50:00;17.10;99.90
10678;DHT22;5387;48.722;9.110;2023-07-13T04:52:27;17.10;99.90
10678;DHT22;5387;48.722;9.110;2023-07-13T04:54:54;17.00;99.90
10678;DHT22;5387;48.722;9.110;2023-07-13T04:57:20;17.00;99.90
10678;DHT22;5387;48.722;9.110;2023-07-13T04:59:47;17.00;99.90
10678;DHT22;5387;48.722;9.110;2023-07-13T05:02:14;17.00;99.90
10678;DHT22;5387;48.722;9.110;2023-07-13T05:04:42;17.10;99.90
10678;DHT22;5387;48.722;9.110;2023-07-13T05:07:10;17.20;99.90
10678;DHT22;5387;48.722;9.110;2023-07-13T05:09:36;17.30;99.90
10678;DHT22;5387;48.722;9.110;2023-07-13T05:12:06;17.30;99.90
10678;DHT22;5387;48.722;9.110;2023-07-13T05:14:33;17.30;99.90
10678;DHT22;5387;48.722;9.110;2023-07-13T05:17:00;17.60;99.90
10678;DHT22;5387;48.722;9.110;2023-07-13T05:19:27;17.60;99.90
10678;DHT22;5387;48.722;9.110;2023-07-13T05:21:55;17.70;99.90
10678;DHT22;5387;48.722;9.110;2023-07-13T05:24:22;17.90;99.90
10678;DHT22;5387;48.722;9.110;2023-07-13T05:26:49;17.90;99.90
10678;DHT22;5387;48.722;9.110;2023-07-13T05:29:15;17.90;99.90
10678;DHT22;5387;48.722;9.110;2023-07-13T05:31:42;17.90;99.90
10678;DHT22;5387;48.722;9.110;2023-07-13T05:34:09;18.10;99.90
10678;DHT22;5387;48.722;9.110;2023-07-13T05:36:36;18.00;99.90
10678;DHT22;5387;48.722;9.110;2023-07-13T05:39:04;18.00;99.90
10678;DHT22;5387;48.722;9.110;2023-07-13T05:41:31;17.90;99.90
10678;DHT22;5387;48.722;9.110;2023-07-13T05:43:58;17.90;99.90
10678;DHT22;5387;48.722;9.110;2023-07-13T05:46:25;18.00;99.90
10678;DHT22;5387;48.722;9.110;2023-07-13T05:48:52;18.00;99.90
10678;DHT22;5387;48.722;9.110;2023-07-13T05:51:18;18.20;99.90
10678;DHT22;5387;48.722;9.110;2023-07-13T05:53:45;18.10;99.90
10678;DHT22;5387;48.722;9.110;2023-07-13T05:56:13;18.20;99.90
10678;DHT22;5387;48.722;9.110;2023-07-13T05:58:40;18.30;99.90
10678;DHT22;5387;48.722;9.110;2023-07-13T06:01:10;18.40;99.90
10678;DHT22;5387;48.722;9.110;2023-07-13T06:03:37;18.50;99.90
10678;DHT22;5387;48.722;9.110;2023-07-13T06:06:05;18.60;99.90
10678;DHT22;5387;48.722;9.110;2023-07-13T06:08:32;18.70;99.90
10678;DHT22;5387;48.722;9.110;2023-07-13T06:13:31;18.90;99.90
10678;DHT22;5387;48.722;9.110;2023-07-13T06:16:00;18.90;99.90
10678;DHT22;5387;48.722;9.110;2023-07-13T06:18:29;19.00;99.90
10678;DHT22;5387;48.722;9.110;2023-07-13T06:20:56;18.90;99.90
10678;DHT22;5387;48.722;9.110;2023-07-13T06:23:23;18.80;99.90
10678;DHT22;5387;48.722;9.110;2023-07-13T06:25:50;18.70;99.90
10678;DHT22;5387;48.722;9.110;2023-07-13T06:28:17;18.80;99.90
10678;DHT22;5387;48.722;9.110;2023-07-13T06:30:45;18.90;99.90
10678;DHT22;5387;48.722;9.110;2023-07-13T06:33:11;18.90;99.90
10678;DHT22;5387;48.722;9.110;2023-07-13T06:35:38;19.00;99.90
10678;DHT22;5387;48.722;9.110;2023-07-13T06:38:05;18.90;99.90
10678;DHT22;5387;48.722;9.110;2023-07-13T06:40:32;19.40;99.90
10678;DHT22;5387;48.722;9.110;2023-07-13T06:42:58;19.70;99.90
10678;DHT22;5387;48.722;9.110;2023-07-13T06:45:25;19.70;99.90
10678;DHT22;5387;48.722;9.110;2023-07-13T06:47:53;19.90;99.90
10678;DHT22;5387;48.722;9.110;2023-07-13T06:50:20;19.90;99.90
10678;DHT22;5387;48.722;9.110;2023-07-13T06:52:47;20.00;99.90
10678;DHT22;5387;48.722;9.110;2023-07-13T06:55:14;19.80;99.90
10678;DHT22;5387;48.722;9.110;2023-07-13T06:57:41;19.90;99.90
10678;DHT22;5387;48.722;9.110;2023-07-13T07:00:08;20.10;99.90
10678;DHT22;5387;48.722;9.110;2023-07-13T07:02:35;20.30;99.90
10678;DHT22;5387;48.722;9.110;2023-07-13T07:05:04;20.30;99.90
10678;DHT22;5387;48.722;9.110;2023-07-13T07:07:31;20.30;99.90
10678;DHT22;5387;48.722;9.110;2023-07-13T07:09:57;20.30;99.90
10678;DHT22;5387;48.722;9.110;2023-07-13T07:12:24;20.00;99.90
10678;DHT22;5387;48.722;9.110;2023-07-13T07:14:51;19.80;99.90
10678;DHT22;5387;48.722;9.110;2023-07-13T07:17:18;19.90;99.90
10678;DHT22;5387;48.722;9.110;2023-07-13T07:19:44;19.90;99.90
10678;DHT22;5387;48.722;9.110;2023-07-13T07:22:13;20.00;99.90
10678;DHT22;5387;48.722;9.110;2023-07-13T07:24:39;20.10;99.90
10678;DHT22;5387;48.722;9.110;2023-07-13T07:27:06;20.20;99.90
10678;DHT22;5387;48.722;9.110;2023-07-13T07:29:33;20.30;99.90
10678;DHT22;5387;48.722;9.110;2023-07-13T07:32:00;20.20;99.90
10678;DHT22;5387;48.722;9.110;2023-07-13T07:34:27;20.00;99.90
10678;DHT22;5387;48.722;9.110;2023-07-13T07:36:54;20.00;99.30
10678;DHT22;5387;48.722;9.110;2023-07-13T07:39:22;20.20;99.90
10678;DHT22;5387;48.722;9.110;2023-07-13T07:41:49;20.20;99.90
10678;DHT22;5387;48.722;9.110;2023-07-13T07:44:16;20.10;99.90
10678;DHT22;5387;48.722;9.110;2023-07-13T07:46:42;20.00;99.90
10678;DHT22;5387;48.722;9.110;2023-07-13T07:49:09;20.20;99.90
10678;DHT22;5387;48.722;9.110;2023-07-13T07:51:36;20.30;99.90
10678;DHT22;5387;48.722;9.110;2023-07-13T07:54:03;20.50;99.90
10678;DHT22;5387;48.722;9.110;2023-07-13T07:56:32;20.60;99.90
10678;DHT22;5387;48.722;9.110;2023-07-13T07:58:59;20.80;99.90
10678;DHT22;5387;48.722;9.110;2023-07-13T08:01:26;20.70;99.20
10678;DHT22;5387;48.722;9.110;2023-07-13T08:03:52;20.60;99.80
10678;DHT22;5387;48.722;9.110;2023-07-13T08:06:19;20.80;99.30
10678;DHT22;5387;48.722;9.110;2023-07-13T08:08:47;20.80;98.60
10678;DHT22;5387;48.722;9.110;2023-07-13T08:11:14;20.90;99.30
10678;DHT22;5387;48.722;9.110;2023-07-13T08:13:42;20.90;98.70
10678;DHT22;5387;48.722;9.110;2023-07-13T08:16:10;20.90;99.90
10678;DHT22;5387;48.722;9.110;2023-07-13T08:18:37;21.10;98.60
10678;DHT22;5387;48.722;9.110;2023-07-13T08:21:04;21.00;97.80
10678;DHT22;5387;48.722;9.110;2023-07-13T08:23:31;21.40;97.50
10678;DHT22;5387;48.722;9.110;2023-07-13T08:25:58;21.30;97.40
10678;DHT22;5387;48.722;9.110;2023-07-13T08:28:27;21.40;98.20
10678;DHT22;5387;48.722;9.110;2023-07-13T08:31:00;21.30;97.00
10678;DHT22;5387;48.722;9.110;2023-07-13T08:33:27;21.20;98.20
10678;DHT22;5387;48.722;9.110;2023-07-13T08:35:54;21.30;97.80
10678;DHT22;5387;48.722;9.110;2023-07-13T08:38:20;21.50;97.10
10678;DHT22;5387;48.722;9.110;2023-07-13T08:40:51;21.50;96.80
10678;DHT22;5387;48.722;9.110;2023-07-13T08:43:20;21.20;97.10
10678;DHT22;5387;48.722;9.110;2023-07-13T08:45:52;21.50;96.70
10678;DHT22;5387;48.722;9.110;2023-07-13T08:48:26;21.70;96.20
10678;DHT22;5387;48.722;9.110;2023-07-13T08:50:56;21.70;96.30
10678;DHT22;5387;48.722;9.110;2023-07-13T08:53:30;21.90;95.60
10678;DHT22;5387;48.722;9.110;2023-07-13T08:55:59;21.90;95.30
10678;DHT22;5387;48.722;9.110;2023-07-13T08:58:27;22.00;95.30
10678;DHT22;5387;48.722;9.110;2023-07-13T09:01:10;22.10;94.70
10678;DHT22;5387;48.722;9.110;2023-07-13T09:03:53;21.90;94.50
10678;DHT22;5387;48.722;9.110;2023-07-13T09:06:29;21.50;94.90
10678;DHT22;5387;48.722;9.110;2023-07-13T09:09:01;21.80;95.20
10678;DHT22;5387;48.722;9.110;2023-07-13T09:11:43;22.10;95.10
10678;DHT22;5387;48.722;9.110;2023-07-13T09:14:33;22.30;94.70
10678;DHT22;5387;48.722;9.110;2023-07-13T09:17:03;22.50;95.10
10678;DHT22;5387;48.722;9.110;2023-07-13T09:19:32;22.60;94.40
10678;DHT22;5387;48.722;9.110;2023-07-13T09:22:02;22.70;95.00
10678;DHT22;5387;48.722;9.110;2023-07-13T09:24:36;23.00;94.70
10678;DHT22;5387;48.722;9.110;2023-07-13T09:27:10;22.90;95.50
10678;DHT22;5387;48.722;9.110;2023-07-13T09:29:42;23.30;95.10
10678;DHT22;5387;48.722;9.110;2023-07-13T09:32:13;23.40;94.50
10678;DHT22;5387;48.722;9.110;2023-07-13T09:34:42;23.50;93.90
10678;DHT22;5387;48.722;9.110;2023-07-13T09:37:16;23.60;94.40
10678;DHT22;5387;48.722;9.110;2023-07-13T09:39:44;24.00;93.20
10678;DHT22;5387;48.722;9.110;2023-07-13T09:42:15;23.90;94.70
10678;DHT22;5387;48.722;9.110;2023-07-13T09:44:54;24.00;92.50
10678;DHT22;5387;48.722;9.110;2023-07-13T09:47:23;23.50;92.50
10678;DHT22;5387;48.722;9.110;2023-07-13T09:49:57;23.40;92.90
10678;DHT22;5387;48.722;9.110;2023-07-13T09:52:25;23.70;94.30
10678;DHT22;5387;48.722;9.110;2023-07-13T09:54:54;24.10;93.10
10678;DHT22;5387;48.722;9.110;2023-07-13T09:57:26;23.90;92.00
10678;DHT22;5387;48.722;9.110;2023-07-13T09:59:55;23.50;92.70
10678;DHT22;5387;48.722;9.110;2023-07-13T10:02:26;23.30;93.30
10678;DHT22;5387;48.722;9.110;2023-07-13T10:04:57;23.30;93.50
10678;DHT22;5387;48.722;9.110;2023-07-13T10:07:24;23.60;93.30
10678;DHT22;5387;48.722;9.110;2023-07-13T10:09:52;23.70;92.00
10678;DHT22;5387;48.722;9.110;2023-07-13T10:12:20;23.90;93.00
10678;DHT22;5387;48.722;9.110;2023-07-13T10:14:51;23.70;93.20
10678;DHT22;5387;48.722;9.110;2023-07-13T10:17:25;23.60;92.90
10678;DHT22;5387;48.722;9.110;2023-07-13T10:19:53;24.00;92.70
10678;DHT22;5387;48.722;9.110;2023-07-13T10:22:27;24.30;92.80
10678;DHT22;5387;48.722;9.110;2023-07-13T10:24:54;24.40;90.80
10678;DHT22;5387;48.722;9.110;2023-07-13T10:27:29;23.80;91.10
10678;DHT22;5387;48.722;9.110;2023-07-13T10:30:02;23.70;91.00
10678;DHT22;5387;48.722;9.110;2023-07-13T10:32:31;24.10;91.20
10678;DHT22;5387;48.722;9.110;2023-07-13T10:34:58;23.50;90.60
10678;DHT22;5387;48.722;9.110;2023-07-13T10:37:33;23.40;91.60
10678;DHT22;5387;48.722;9.110;2023-07-13T10:40:05;23.90;91.30
10678;DHT22;5387;48.722;9.110;2023-07-13T10:42:40;24.10;91.00
10678;DHT22;5387;48.722;9.110;2023-07-13T10:45:13;24.30;91.20
10678;DHT22;5387;48.722;9.110;2023-07-13T10:47:41;24.10;91.80
10678;DHT22;5387;48.722;9.110;2023-07-13T10:50:14;24.00;90.90
10678;DHT22;5387;48.722;9.110;2023-07-13T10:52:45;24.10;91.20
10678;DHT22;5387;48.722;9.110;2023-07-13T10:55:34;23.90;90.30
10678;DHT22;5387;48.722;9.110;2023-07-13T10:58:03;23.90;90.20
10678;DHT22;5387;48.722;9.110;2023-07-13T11:00:45;23.50;89.20
10678;DHT22;5387;48.722;9.110;2023-07-13T11:03:15;23.70;91.20
10678;DHT22;5387;48.722;9.110;2023-07-13T11:05:43;24.20;91.20
10678;DHT22;5387;48.722;9.110;2023-07-13T11:08:19;24.50;90.70
10678;DHT22;5387;48.722;9.110;2023-07-13T11:10:51;24.60;89.70
10678;DHT22;5387;48.722;9.110;2023-07-13T11:13:55;24.80;89.40
10678;DHT22;5387;48.722;9.110;2023-07-13T11:16:42;24.60;88.20
10678;DHT22;5387;48.722;9.110;2023-07-13T11:19:38;24.60;90.30
10678;DHT22;5387;48.722;9.110;2023-07-13T11:22:14;24.60;89.90
10678;DHT22;5387;48.722;9.110;2023-07-13T11:25:00;24.90;89.00
10678;DHT22;5387;48.722;9.110;2023-07-13T11:27:39;25.10;87.90
10678;DHT22;5387;48.722;9.110;2023-07-13T11:30:23;25.10;87.50
10678;DHT22;5387;48.722;9.110;2023-07-13T11:32:52;25.70;88.10
10678;DHT22;5387;48.722;9.110;2023-07-13T11:35:33;25.90;85.40
10678;DHT22;5387;48.722;9.110;2023-07-13T11:38:01;25.90;87.40
10678;DHT22;5387;48.722;9.110;2023-07-13T11:40:30;26.20;88.20
10678;DHT22;5387;48.722;9.110;2023-07-13T11:43:00;26.00;84.80
10678;DHT22;5387;48.722;9.110;2023-07-13T11:45:28;26.30;87.40
10678;DHT22;5387;48.722;9.110;2023-07-13T11:47:55;25.90;82.40
10678;DHT22;5387;48.722;9.110;2023-07-13T11:50:25;25.50;83.40
10678;DHT22;5387;48.722;9.110;2023-07-13T11:52:54;25.10;82.80
10678;DHT22;5387;48.722;9.110;2023-07-13T11:55:22;25.30;82.70
10678;DHT22;5387;48.722;9.110;2023-07-13T11:57:56;25.90;87.40
10678;DHT22;5387;48.722;9.110;2023-07-13T12:00:28;27.70;85.50
10678;DHT22;5387;48.722;9.110;2023-07-13T12:02:57;29.10;83.40
10678;DHT22;5387;48.722;9.110;2023-07-13T12:05:25;30.00;78.70
10678;DHT22;5387;48.722;9.110;2023-07-13T12:07:52;28.10;77.80
10678;DHT22;5387;48.722;9.110;2023-07-13T12:10:21;26.00;81.30
10678;DHT22;5387;48.722;9.110;2023-07-13T12:12:52;25.00;82.90
10678;DHT22;5387;48.722;9.110;2023-07-13T12:15:20;24.30;84.20
10678;DHT22;5387;48.722;9.110;2023-07-13T12:17:48;25.00;87.00
10678;DHT22;5387;48.722;9.110;2023-07-13T12:20:20;27.10;81.40
10678;DHT22;5387;48.722;9.110;2023-07-13T12:22:50;29.40;77.50
10678;DHT22;5387;48.722;9.110;2023-07-13T12:25:17;30.40;79.90
10678;DHT22;5387;48.722;9.110;2023-07-13T12:27:47;31.60;74.50
10678;DHT22;5387;48.722;9.110;2023-07-13T12:30:29;30.80;72.60
10678;DHT22;5387;48.722;9.110;2023-07-13T12:32:58;30.40;71.70
10678;DHT22;5387;48.722;9.110;2023-07-13T12:35:28;29.90;71.50
10678;DHT22;5387;48.722;9.110;2023-07-13T12:37:57;28.90;72.10
10678;DHT22;5387;48.722;9.110;2023-07-13T12:40:28;28.70;72.90
10678;DHT22;5387;48.722;9.110;2023-07-13T12:42:58;28.90;73.80
10678;DHT22;5387;48.722;9.110;2023-07-13T12:45:27;30.10;73.60
10678;DHT22;5387;48.722;9.110;2023-07-13T12:47:56;30.70;68.70
10678;DHT22;5387;48.722;9.110;2023-07-13T12:50:29;29.00;69.30
10678;DHT22;5387;48.722;9.110;2023-07-13T12:53:01;29.30;71.20
10678;DHT22;5387;48.722;9.110;2023-07-13T12:55:29;29.10;70.70
10678;DHT22;5387;48.722;9.110;2023-07-13T12:57:59;30.40;68.60
10678;DHT22;5387;48.722;9.110;2023-07-13T13:00:30;29.80;70.60
10678;DHT22;5387;48.722;9.110;2023-07-13T13:03:02;30.20;67.20
10678;DHT22;5387;48.722;9.110;2023-07-13T13:05:30;30.10;69.40
10678;DHT22;5387;48.722;9.110;2023-07-13T13:07:57;30.30;66.80
10678;DHT22;5387;48.722;9.110;2023-07-13T13:10:24;31.10;66.80
10678;DHT22;5387;48.722;9.110;2023-07-13T13:12:52;30.60;65.80
10678;DHT22;5387;48.722;9.110;2023-07-13T13:15:19;29.50;66.40
10678;DHT22;5387;48.722;9.110;2023-07-13T13:17:49;29.00;69.30
10678;DHT22;5387;48.722;9.110;2023-07-13T13:20:18;30.30;68.30
10678;DHT22;5387;48.722;9.110;2023-07-13T13:22:45;29.80;66.60
10678;DHT22;5387;48.722;9.110;2023-07-13T13:25:12;29.00;66.70
10678;DHT22;5387;48.722;9.110;2023-07-13T13:27:41;28.30;66.40
10678;DHT22;5387;48.722;9.110;2023-07-13T13:30:11;27.40;68.70
10678;DHT22;5387;48.722;9.110;2023-07-13T13:32:38;26.70;69.10
10678;DHT22;5387;48.722;9.110;2023-07-13T13:35:12;26.60;68.40
10678;DHT22;5387;48.722;9.110;2023-07-13T13:37:39;27.20;68.90
10678;DHT22;5387;48.722;9.110;2023-07-13T13:40:14;26.60;68.50
10678;DHT22;5387;48.722;9.110;2023-07-13T13:42:41;26.50;70.60
10678;DHT22;5387;48.722;9.110;2023-07-13T13:45:09;26.10;68.90
10678;DHT22;5387;48.722;9.110;2023-07-13T13:47:38;26.00;72.00
10678;DHT22;5387;48.722;9.110;2023-07-13T13:50:13;26.10;70.80
10678;DHT22;5387;48.722;9.110;2023-07-13T13:52:41;26.60;71.30
10678;DHT22;5387;48.722;9.110;2023-07-13T13:55:12;27.30;70.80
10678;DHT22;5387;48.722;9.110;2023-07-13T13:57:39;27.70;69.50
10678;DHT22;5387;48.722;9.110;2023-07-13T14:00:08;27.40;69.40
10678;DHT22;5387;48.722;9.110;2023-07-13T14:02:37;26.80;68.70
10678;DHT22;5387;48.722;9.110;2023-07-13T14:05:05;25.70;68.40
10678;DHT22;5387;48.722;9.110;2023-07-13T14:07:34;25.60;69.60
10678;DHT22;5387;48.722;9.110;2023-07-13T14:10:01;25.30;69.50
10678;DHT22;5387;48.722;9.110;2023-07-13T14:12:28;25.30;70.60
10678;DHT22;5387;48.722;9.110;2023-07-13T14:14:56;25.70;71.50
10678;DHT22;5387;48.722;9.110;2023-07-13T14:17:25;26.00;70.80
10678;DHT22;5387;48.722;9.110;2023-07-13T14:19:53;25.80;70.00
10678;DHT22;5387;48.722;9.110;2023-07-13T14:22:23;25.70;70.50
10678;DHT22;5387;48.722;9.110;2023-07-13T14:24:52;25.40;71.90
10678;DHT22;5387;48.722;9.110;2023-07-13T14:27:20;25.10;71.60
10678;DHT22;5387;48.722;9.110;2023-07-13T14:29:47;25.20;71.00
10678;DHT22;5387;48.722;9.110;2023-07-13T14:32:14;25.10;70.70
10678;DHT22;5387;48.722;9.110;2023-07-13T14:34:41;25.30;71.50
10678;DHT22;5387;48.722;9.110;2023-07-13T14:37:12;25.30;72.10
10678;DHT22;5387;48.722;9.110;2023-07-13T14:39:40;25.40;72.50
10678;DHT22;5387;48.722;9.110;2023-07-13T14:42:10;25.30;72.10
10678;DHT22;5387;48.722;9.110;2023-07-13T14:44:38;25.40;71.00
10678;DHT22;5387;48.722;9.110;2023-07-13T14:47:06;25.40;71.20
10678;DHT22;5387;48.722;9.110;2023-07-13T14:49:36;25.70;71.60
10678;DHT22;5387;48.722;9.110;2023-07-13T14:52:11;25.50;72.20
10678;DHT22;5387;48.722;9.110;2023-07-13T14:54:39;25.40;72.00
10678;DHT22;5387;48.722;9.110;2023-07-13T14:57:10;25.60;71.30
10678;DHT22;5387;48.722;9.110;2023-07-13T14:59:38;25.50;72.30
10678;DHT22;5387;48.722;9.110;2023-07-13T15:02:16;25.40;71.50
10678;DHT22;5387;48.722;9.110;2023-07-13T15:04:43;24.80;72.60
10678;DHT22;5387;48.722;9.110;2023-07-13T15:07:11;25.00;72.00
10678;DHT22;5387;48.722;9.110;2023-07-13T15:09:39;25.20;73.60
10678;DHT22;5387;48.722;9.110;2023-07-13T15:12:06;25.60;74.40
10678;DHT22;5387;48.722;9.110;2023-07-13T15:14:34;25.70;73.10
10678;DHT22;5387;48.722;9.110;2023-07-13T15:17:01;25.30;72.50
10678;DHT22;5387;48.722;9.110;2023-07-13T15:19:28;25.00;72.90
10678;DHT22;5387;48.722;9.110;2023-07-13T15:21:56;24.70;73.70
10678;DHT22;5387;48.722;9.110;2023-07-13T15:24:24;24.70;73.40
10678;DHT22;5387;48.722;9.110;2023-07-13T15:26:51;25.10;73.10
10678;DHT22;5387;48.722;9.110;2023-07-13T15:29:18;24.80;73.30
10678;DHT22;5387;48.722;9.110;2023-07-13T15:31:46;24.80;73.70
10678;DHT22;5387;48.722;9.110;2023-07-13T15:34:15;24.80;73.20
10678;DHT22;5387;48.722;9.110;2023-07-13T15:36:42;24.80;74.20
10678;DHT22;5387;48.722;9.110;2023-07-13T15:39:14;25.00;73.50
10678;DHT22;5387;48.722;9.110;2023-07-13T15:41:42;24.80;72.60
10678;DHT22;5387;48.722;9.110;2023-07-13T15:44:26;24.90;72.30
10678;DHT22;5387;48.722;9.110;2023-07-13T15:46:55;24.80;73.70
10678;DHT22;5387;48.722;9.110;2023-07-13T15:49:22;24.70;73.20
10678;DHT22;5387;48.722;9.110;2023-07-13T15:51:49;24.50;72.00
10678;DHT22;5387;48.722;9.110;2023-07-13T15:54:17;24.50;73.50
10678;DHT22;5387;48.722;9.110;2023-07-13T15:56:48;24.50;72.90
10678;DHT22;5387;48.722;9.110;2023-07-13T15:59:17;24.60;73.30